Litchfield, IL

2:45 AM CST on February 21, 2017 (GMT -0600)
Litchfield

Weather History for K3LF - December, 2012

Change the Weather History Date:

Thursday, December 13, 2012

  Actual Average (KALN) Record (KALN)
Temperature  
Mean Temperature 40 °F -  
Max Temperature 48 °F 41 °F 64 °F (2015)
Min Temperature 31 °F 27 °F 5 °F (2010)
Degree Days  
Heating Degree Days 26    
Moisture  
Dew Point 29 °F    
Average Humidity 73    
Maximum Humidity 84    
Minimum Humidity 55    
Precipitation  
Precipitation 0.00 in - - ()
Sea Level Pressure  
Sea Level Pressure 30.26 in    
Wind  
Wind Speed 10 mph (SSE)    
Max Wind Speed 21 mph    
Max Gust Speed 26 mph    
Visibility 10 miles    
Events      
Averages and records for this station are not official NWS values.
T = Trace of Precipitation, MM = Missing Value Source: NWS Daily Summary

Daily Weather History Graph

Daily Weather History Graph

Search for Another Location

Airport or City:

Trip Planner

Search our weather history database for the weather conditions in past years. The results will help you decide how hot, cold, wet, or windy it might be!

Date:

Astronomy

Dec. 13, 2012 Rise Set
Actual Time 7:09 AM CST 4:36 PM CST
Civil Twilight 6:39 AM CST 5:06 PM CST
Nautical Twilight 6:06 AM CST 5:40 PM CST
Astronomical Twilight 5:33 AM CST 6:12 PM CST
Moon 7:18 AM CST (12/13) 5:18 PM CST (12/13)
Length of Visible Light 10h 26m
Length of Day
9h 26m
New Moon, 0% of the Moon is Illuminated
Dec 13
New Moon
Dec 19
First Quarter
Dec 28
Full
Jan 4
Last Quarter
Jan 11
New

Hourly Weather History & Observations

Time (CST) Temp. Windchill Dew Point Humidity Pressure Visibility Wind Dir Wind Speed Gust Speed Precip Events Conditions
12:15 AM 32.9 °F 27.5 °F 27.5 °F 81% 30.32 in 10.0 mi SSE 5.8 mph - N/A   Clear
12:35 AM 32.2 °F 26.7 °F 27.1 °F 82% 30.32 in 10.0 mi SSE 5.8 mph - N/A   Clear
12:55 AM 32.4 °F 26.0 °F 27.3 °F 82% 30.31 in 10.0 mi SSE 6.9 mph - N/A   Clear
1:15 AM 33.1 °F 26.1 °F 27.5 °F 80% 30.31 in 10.0 mi SSE 8.1 mph - N/A   Clear
1:35 AM 33.3 °F 25.7 °F 27.5 °F 79% 30.31 in 10.0 mi SSE 9.2 mph - N/A   Clear
1:55 AM 33.1 °F 25.5 °F 27.5 °F 80% 30.31 in 10.0 mi SSE 9.2 mph - N/A   Clear
2:15 AM 32.9 °F 25.9 °F 27.5 °F 81% 30.31 in 10.0 mi SSE 8.1 mph - N/A   Clear
2:35 AM 32.7 °F 25.0 °F 27.3 °F 81% 30.31 in 10.0 mi SE 9.2 mph - N/A   Clear
2:55 AM 32.2 °F 25.0 °F 27.1 °F 82% 30.31 in 10.0 mi SSE 8.1 mph - N/A   Clear
3:15 AM 32.0 °F 24.8 °F 27.0 °F 82% 30.31 in 10.0 mi SSE 8.1 mph - N/A   Clear
3:35 AM 32.0 °F 24.2 °F 27.0 °F 82% 30.31 in 10.0 mi SSE 9.2 mph - N/A   Clear
3:55 AM 32.2 °F 24.4 °F 26.6 °F 80% 30.30 in 10.0 mi SSE 9.2 mph - N/A   Clear
4:15 AM 32.0 °F 24.2 °F 26.6 °F 80% 30.30 in 10.0 mi SSE 9.2 mph - N/A   Clear
4:35 AM 32.0 °F 24.8 °F 26.6 °F 80% 30.31 in 10.0 mi SSE 8.1 mph - N/A   Clear
4:55 AM 32.0 °F 24.8 °F 26.8 °F 81% 30.31 in 10.0 mi SSE 8.1 mph - N/A   Clear
5:15 AM 31.8 °F 25.4 °F 26.6 °F 81% 30.31 in 10.0 mi SSE 6.9 mph - N/A   Clear
5:35 AM 32.0 °F 25.6 °F 27.0 °F 82% 30.31 in 10.0 mi SSE 6.9 mph - N/A   Clear
5:55 AM 32.0 °F 24.8 °F 27.1 °F 82% 30.31 in 10.0 mi SSE 8.1 mph - N/A   Clear
6:15 AM 32.0 °F 24.8 °F 27.1 °F 82% 30.31 in 10.0 mi SSE 8.1 mph - N/A   Clear
6:35 AM 32.0 °F 24.2 °F 27.3 °F 83% 30.32 in 10.0 mi SSE 9.2 mph - N/A   Clear
6:55 AM 32.0 °F 23.6 °F 27.5 °F 83% 30.32 in 10.0 mi SSE 10.4 mph - N/A   Clear
7:15 AM 32.7 °F 24.5 °F 27.5 °F 81% 30.31 in 10.0 mi SSE 10.4 mph - N/A   Clear
7:35 AM 32.9 °F 24.7 °F 27.7 °F 81% 30.31 in 10.0 mi SSE 10.4 mph - N/A   Clear
7:55 AM 33.4 °F 24.8 °F 27.9 °F 80% 30.31 in 10.0 mi SSE 11.5 mph - N/A   Clear
8:15 AM 34.5 °F 26.2 °F 28.0 °F 77% 30.31 in 10.0 mi SSE 11.5 mph - N/A   Clear
8:35 AM 35.6 °F 27.1 °F 28.4 °F 75% 30.31 in 10.0 mi SSE 12.7 mph - N/A   Clear
8:55 AM 36.5 °F 27.4 °F 28.2 °F 72% 30.31 in 10.0 mi South 15.0 mph - N/A   Clear
9:15 AM 37.4 °F 28.5 °F 28.6 °F 70% 30.32 in 10.0 mi South 15.0 mph - N/A   Clear
9:35 AM 37.6 °F 28.8 °F 29.3 °F 72% 30.32 in 10.0 mi South 15.0 mph 20.7 mph N/A   Clear
9:55 AM 38.3 °F 29.3 °F 29.1 °F 70% 30.32 in 10.0 mi South 16.1 mph 19.6 mph N/A   Clear
10:15 AM 38.7 °F 29.8 °F 29.3 °F 69% 30.31 in 10.0 mi South 16.1 mph - N/A   Clear
10:35 AM 39.7 °F 30.9 °F 30.2 °F 69% 30.31 in 10.0 mi South 17.3 mph - N/A   Clear
10:55 AM 41.2 °F 32.7 °F 30.4 °F 65% 30.30 in 10.0 mi South 17.3 mph - N/A   Clear
11:15 AM 42.3 °F 33.8 °F 30.9 °F 64% 30.28 in 10.0 mi South 18.4 mph 21.9 mph N/A   Clear
11:35 AM 43.0 °F 35.1 °F 32.0 °F 65% 30.27 in 10.0 mi South 17.3 mph - N/A   Clear
11:55 AM 43.2 °F 35.0 °F 31.3 °F 63% 30.26 in 10.0 mi South 18.4 mph 24.2 mph N/A   Clear
12:15 PM 43.5 °F 35.5 °F 30.7 °F 61% 30.26 in 10.0 mi South 18.4 mph 23.0 mph N/A   Clear
12:35 PM 44.4 °F 36.4 °F 32.0 °F 62% 30.25 in 10.0 mi South 19.6 mph - N/A   Clear
12:55 PM 45.0 °F 37.1 °F 32.4 °F 61% 30.24 in 10.0 mi South 19.6 mph 26.5 mph N/A   Clear
1:15 PM 45.1 °F 37.1 °F 32.9 °F 62% 30.23 in 10.0 mi South 20.7 mph - N/A   Clear
1:35 PM 46.2 °F 39.8 °F 33.3 °F 61% 30.22 in 10.0 mi South 15.0 mph - N/A   Clear
1:55 PM 47.3 °F - 33.6 °F 59% 30.20 in 10.0 mi South 20.7 mph - N/A   Clear
2:15 PM 48.6 °F - 34.5 °F 58% 30.20 in 10.0 mi South 19.6 mph 23.0 mph N/A   Clear
2:35 PM 48.2 °F - 33.1 °F 56% 30.20 in 10.0 mi South 20.7 mph - N/A   Clear
2:55 PM 48.2 °F - 33.3 °F 56% 30.20 in 10.0 mi South 18.4 mph - N/A   Clear
3:15 PM 47.8 °F - 33.3 °F 57% 30.19 in 10.0 mi South 12.7 mph - N/A   Clear
3:35 PM 47.7 °F - 32.0 °F 55% 30.19 in 10.0 mi SSE 12.7 mph 19.6 mph N/A   Clear
3:55 PM 46.8 °F - 32.0 °F 57% 30.19 in 10.0 mi South 13.8 mph - N/A   Clear
6:15 PM 41.4 °F 34.0 °F 30.0 °F 64% 30.19 in 10.0 mi SSE 13.8 mph - N/A   Clear
6:55 PM 41.0 °F 33.9 °F 29.3 °F 63% 30.19 in 10.0 mi SSE 12.7 mph - N/A   Clear
7:15 PM 41.0 °F 33.5 °F 29.3 °F 63% 30.19 in 10.0 mi SSE 13.8 mph - N/A   Clear
7:55 PM 39.4 °F 31.4 °F 29.7 °F 68% 30.18 in 10.0 mi South 13.8 mph - N/A   Clear
8:15 PM 38.7 °F 30.9 °F 29.8 °F 71% 30.18 in 10.0 mi South 12.7 mph - N/A   Clear
8:35 PM 38.1 °F 30.7 °F 30.0 °F 73% 30.17 in 10.0 mi South 11.5 mph - N/A   Clear
8:55 PM 37.2 °F 29.6 °F 30.2 °F 76% 30.18 in 10.0 mi South 11.5 mph - N/A   Clear
9:15 PM 36.7 °F 28.4 °F 30.4 °F 78% 30.18 in 10.0 mi South 12.7 mph - N/A   Clear
9:55 PM 36.1 °F 29.3 °F 30.7 °F 81% 30.19 in 10.0 mi South 9.2 mph - N/A   Clear
10:15 PM 35.6 °F 29.2 °F 30.7 °F 82% 30.20 in 10.0 mi South 8.1 mph - N/A   Clear
10:35 PM 34.7 °F 28.1 °F 30.2 °F 84% 30.20 in 10.0 mi South 8.1 mph - N/A   Clear
10:55 PM 34.9 °F 29.0 °F 30.2 °F 83% 30.20 in 10.0 mi SSE 6.9 mph - N/A   Clear
11:15 PM 34.3 °F 29.2 °F 30.0 °F 84% 30.21 in 10.0 mi SSE 5.8 mph - N/A   Clear
11:55 PM 34.2 °F 28.2 °F 29.7 °F 84% 30.21 in 10.0 mi SSE 6.9 mph - N/A   Clear